Time;durP1;ratioP1;P1;durP2;ratioP2;P2;SDS_P1;SDS_P2;PMS_P1;PMS_P2;Temp;Humidity;BMP_temperature;BMP_pressure;BME280_temperature;BME280_humidity;BME280_pressure;Samples;Min_cycle;Max_cycle;Signal;HPM_P1;HPM_P2
2021/07/05 00:02:17;;;;;;;;;;;;;;;;;;5047727;28;19968;-80
2021/07/05 00:04:44;;;;;;;;;;;;;;;;;;5061321;28;19974;-81
2021/07/05 00:07:11;;;;;;;;;;;;;;;;;;5036762;28;19975;-81
2021/07/05 00:09:38;;;;;;;;;;;;;;;;;;5067592;28;20011;-80
2021/07/05 00:12:05;;;;;;;;;;;;;;;;;;5053888;28;20357;-80
2021/07/05 00:14:33;;;;;;;;;;;;;;;;;;5070300;28;20011;-80
2021/07/05 00:17:00;;;;;;;;;;;;;;;;;;5053333;28;20031;-80
2021/07/05 00:19:27;;;;;;;;;;;;;;;;;;5053396;28;19933;-81
2021/07/05 00:21:54;;;;;;;;;;;;;;;;;;5071033;28;19963;-80
2021/07/05 00:24:21;;;;;;;;;;;;;;;;;;5054400;28;20026;-81
2021/07/05 00:26:48;;;;;;;;;;;;;;;;;;5072505;28;20574;-80
2021/07/05 00:29:15;;;;;;;;;;;;;;;;;;5070882;28;19970;-80
2021/07/05 00:31:42;;;;;;;;;;;;;;;;;;5071498;28;20015;-81
2021/07/05 00:34:20;;;;;;;;;;;;;;;;;;5052537;28;19929;-81
2021/07/05 00:36:47;;;;;;;;;;;;;;;;;;5042376;28;20344;-81
2021/07/05 00:39:15;;;;;;;;;;;;;;;;;;5070469;28;20015;-81
2021/07/05 00:41:42;;;;;;;;;;;;;;;;;;5068036;28;20016;-80
2021/07/05 00:44:13;;;;;;;;;;;;;;;;;;5070920;28;19967;-81
2021/07/05 00:46:40;;;;;;;;;;;;;;;;;;5057598;28;19968;-81
2021/07/05 00:49:07;;;;;;;;;;;;;;;;;;5069778;28;20663;-81
2021/07/05 00:51:34;;;;;;;;;;;;;;;;;;5086714;28;19960;-81
2021/07/05 00:54:02;;;;;;;;;;;;;;;;;;5061128;28;20434;-81
2021/07/05 00:56:29;;;;;;;;;;;;;;;;;;5061081;28;20086;-80
2021/07/05 00:58:56;;;;;;;;;;;;;;;;;;5066265;28;20011;-81
2021/07/05 01:01:26;;;;;;;;;;;;;;;;;;5064384;28;20470;-81
2021/07/05 01:03:53;;;;;;;;;;;;;;;;;;5070943;28;19936;-80
2021/07/05 01:06:22;;;;;;;;;;;;;;;;;;5054637;28;19971;-81
2021/07/05 01:08:49;;;;;;;;;;;;;;;;;;5061239;28;19960;-81
2021/07/05 01:11:21;;;;;;;;;;;;;;;;;;5066992;28;19976;-81
2021/07/05 01:13:48;;;;;;;;;;;;;;;;;;5087003;28;20018;-81
2021/07/05 01:16:15;;;;;;;;;;;;;;;;;;5077678;28;20007;-81
2021/07/05 01:18:45;;;;;;;;;;;;;;;;;;5065721;28;20006;-81
2021/07/05 01:21:12;;;;;;;;;;;;;;;;;;5060202;28;20027;-81
2021/07/05 01:23:39;;;;;;;;;;;;;;;;;;5056729;28;20011;-81
2021/07/05 01:26:06;;;;;;;;;;;;;;;;;;5060739;28;20023;-81
2021/07/05 01:28:33;;;;;;;;;;;;;;;;;;5033933;28;19963;-81
2021/07/05 01:31:00;;;;;;;;;;;;;;;;;;5054606;28;19968;-81
2021/07/05 01:33:27;;;;;;;;;;;;;;;;;;5051241;28;19974;-81
2021/07/05 01:35:54;;;;;;;;;;;;;;;;;;5060574;28;20436;-81
2021/07/05 01:38:21;;;;;;;;;;;;;;;;;;5053973;28;19976;-80
2021/07/05 01:40:49;;;;;;;;;;;;;;;;;;5067099;28;20011;-80
2021/07/05 01:43:16;;;;;;;;;;;;;;;;;;5070429;28;19964;-81
2021/07/05 01:45:43;;;;;;;;;;;;;;;;;;5079942;28;20369;-81
2021/07/05 01:48:11;;;;;;;;;;;;;;;;;;5064527;28;19967;-81
2021/07/05 01:50:38;;;;;;;;;;;;;;;;;;5073211;28;19929;-80
2021/07/05 01:53:05;;;;;;;;;;;;;;;;;;5071684;28;19984;-80
2021/07/05 01:55:33;;;;;;;;;;;;;;;;;;5067690;28;19955;-81
2021/07/05 01:58:00;;;;;;;;;;;;;;;;;;5047527;28;19981;-81
2021/07/05 02:00:32;;;;;;;;;;;;;;;;;;5055336;28;19929;-84
2021/07/05 02:02:59;;;;;;;;;;;;;;;;;;5056898;28;19924;-81
2021/07/05 02:05:27;;;;;;;;;;;;;;;;;;5075322;28;19939;-80
2021/07/05 02:07:54;;;;;;;;;;;;;;;;;;5061811;28;19978;-80
2021/07/05 02:12:52;;;;;;;;;;;;;;;;;;5073347;28;19972;-82
2021/07/05 02:15:19;;;;;;;;;;;;;;;;;;5083727;28;20615;-80
2021/07/05 02:17:46;;;;;;;;;;;;;;;;;;5043869;28;20377;-81
2021/07/05 02:20:13;;;;;;;;;;;;;;;;;;5056623;28;19925;-81
2021/07/05 02:22:40;;;;;;;;;;;;;;;;;;5055268;28;20003;-81
2021/07/05 02:25:08;;;;;;;;;;;;;;;;;;5086931;28;20621;-80
2021/07/05 02:27:39;;;;;;;;;;;;;;;;;;5085300;28;19967;-81
2021/07/05 02:30:06;;;;;;;;;;;;;;;;;;5070348;28;20030;-81
2021/07/05 02:32:33;;;;;;;;;;;;;;;;;;5058230;28;19924;-81
2021/07/05 02:35:00;;;;;;;;;;;;;;;;;;5052023;28;19999;-81
2021/07/05 02:37:27;;;;;;;;;;;;;;;;;;5078838;28;20285;-81
2021/07/05 02:39:58;;;;;;;;;;;;;;;;;;5071390;28;20019;-81
2021/07/05 02:42:25;;;;;;;;;;;;;;;;;;5088388;28;19986;-81
2021/07/05 02:44:52;;;;;;;;;;;;;;;;;;5087968;28;19935;-81
2021/07/05 02:47:19;;;;;;;;;;;;;;;;;;5058366;28;20401;-81
2021/07/05 02:49:47;;;;;;;;;;;;;;;;;;5046356;28;20709;-81
2021/07/05 02:52:14;;;;;;;;;;;;;;;;;;5063140;28;20083;-81
2021/07/05 02:54:41;;;;;;;;;;;;;;;;;;5068667;28;20031;-81
2021/07/05 02:57:28;;;;;;;;;;;;;;;;;;5055699;28;20015;-81
2021/07/05 03:00:00;;;;;;;;;;;;;;;;;;5070363;28;20447;-81
2021/07/05 03:02:27;;;;;;;;;;;;;;;;;;5069294;28;19929;-81
2021/07/05 03:04:54;;;;;;;;;;;;;;;;;;5070771;28;20007;-81
2021/07/05 03:07:21;;;;;;;;;;;;;;;;;;5053462;28;19929;-81
2021/07/05 03:09:48;;;;;;;;;;;;;;;;;;5072098;28;19968;-81
2021/07/05 03:12:15;;;;;;;;;;;;;;;;;;5071517;28;20023;-81
2021/07/05 03:14:49;;;;;;;;;;;;;;;;;;5066976;28;20363;-81
2021/07/05 03:17:16;;;;;;;;;;;;;;;;;;5057291;28;20408;-81
2021/07/05 03:19:44;;;;;;;;;;;;;;;;;;5072591;28;19925;-81
2021/07/05 03:22:13;;;;;;;;;;;;;;;;;;5057785;28;19929;-81
2021/07/05 03:24:41;;;;;;;;;;;;;;;;;;5071800;28;19975;-82
2021/07/05 03:27:08;;;;;;;;;;;;;;;;;;5040671;28;20007;-81
2021/07/05 03:29:35;;;;;;;;;;;;;;;;;;5072014;28;20007;-81
2021/07/05 03:32:02;;;;;;;;;;;;;;;;;;5053832;28;19925;-81
2021/07/05 03:34:29;;;;;;;;;;;;;;;;;;5055895;28;19924;-81
2021/07/05 03:36:56;;;;;;;;;;;;;;;;;;5049994;28;19963;-81
2021/07/05 03:39:23;;;;;;;;;;;;;;;;;;5052987;28;20020;-80
2021/07/05 03:41:51;;;;;;;;;;;;;;;;;;5070058;28;20343;-80
2021/07/05 03:44:18;;;;;;;;;;;;;;;;;;5062582;28;19924;-81
2021/07/05 03:46:45;;;;;;;;;;;;;;;;;;5072954;28;19972;-81
2021/07/05 03:49:18;;;;;;;;;;;;;;;;;;5068141;28;19931;-81
2021/07/05 03:51:46;;;;;;;;;;;;;;;;;;5047954;28;19924;-80
2021/07/05 03:54:25;;;;;;;;;;;;;;;;;;5071643;28;20011;-79
2021/07/05 03:56:52;;;;;;;;;;;;;;;;;;5057396;28;20012;-79
2021/07/05 03:59:22;;;;;;;;;;;;;;;;;;5041906;28;19925;-80
2021/07/05 04:01:49;;;;;;;;;;;;;;;;;;5057327;28;20353;-79
2021/07/05 04:04:20;;;;;;;;;;;;;;;;;;5068813;28;19931;-79
2021/07/05 04:06:47;;;;;;;;;;;;;;;;;;5043706;28;20019;-79
2021/07/05 04:09:15;;;;;;;;;;;;;;;;;;5068044;28;20293;-80
2021/07/05 04:11:43;;;;;;;;;;;;;;;;;;5082815;28;20355;-79
2021/07/05 04:14:10;;;;;;;;;;;;;;;;;;5054863;28;20002;-80
2021/07/05 04:16:37;;;;;;;;;;;;;;;;;;5036316;28;19968;-79
2021/07/05 04:19:04;;;;;;;;;;;;;;;;;;5062764;28;19924;-80
2021/07/05 04:21:31;;;;;;;;;;;;;;;;;;5061549;28;19925;-80
2021/07/05 04:23:59;;;;;;;;;;;;;;;;;;5063253;28;19925;-79
2021/07/05 04:26:26;;;;;;;;;;;;;;;;;;5058554;28;20043;-79
2021/07/05 04:28:53;;;;;;;;;;;;;;;;;;5057768;28;19994;-79
2021/07/05 04:31:22;;;;;;;;;;;;;;;;;;5068551;28;21300;-80
2021/07/05 04:33:49;;;;;;;;;;;;;;;;;;5067241;28;19955;-79
2021/07/05 04:36:16;;;;;;;;;;;;;;;;;;5058591;28;20023;-81
2021/07/05 04:38:44;;;;;;;;;;;;;;;;;;5060921;28;20039;-81
2021/07/05 04:41:11;;;;;;;;;;;;;;;;;;5065573;28;20043;-82
2021/07/05 04:43:41;;;;;;;;;;;;;;;;;;5065233;28;20016;-85
2021/07/05 04:46:08;;;;;;;;;;;;;;;;;;5054061;28;19932;-79
2021/07/05 04:48:35;;;;;;;;;;;;;;;;;;5052097;28;19967;-79
2021/07/05 04:51:03;;;;;;;;;;;;;;;;;;5050673;28;20000;-80
2021/07/05 04:53:30;;;;;;;;;;;;;;;;;;5078299;28;19981;-82
2021/07/05 04:56:05;;;;;;;;;;;;;;;;;;5057702;28;19928;-80
2021/07/05 04:58:38;;;;;;;;;;;;;;;;;;5060544;28;19967;-80
2021/07/05 05:01:05;;;;;;;;;;;;;;;;;;5085021;28;20019;-80
2021/07/05 05:03:33;;;;;;;;;;;;;;;;;;5063794;28;20007;-79
2021/07/05 05:06:02;;;;;;;;;;;;;;;;;;5050986;28;20391;-82
2021/07/05 05:08:29;;;;;;;;;;;;;;;;;;5060645;28;19976;-81
2021/07/05 05:10:56;;;;;;;;;;;;;;;;;;5054079;28;20002;-80
2021/07/05 05:13:23;;;;;;;;;;;;;;;;;;5066798;28;19989;-78
2021/07/05 05:15:51;;;;;;;;;;;;;;;;;;5063921;28;19928;-78
2021/07/05 05:18:20;;;;;;;;;;;;;;;;;;5062100;28;19928;-78
2021/07/05 05:20:47;;;;;;;;;;;;;;;;;;5069031;28;19932;-77
2021/07/05 05:23:14;;;;;;;;;;;;;;;;;;5069239;28;20012;-78
2021/07/05 05:25:41;;;;;;;;;;;;;;;;;;5066717;28;20023;-79
2021/07/05 05:28:08;;;;;;;;;;;;;;;;;;5066259;28;20004;-80
2021/07/05 05:30:35;;;;;;;;;;;;;;;;;;5060929;28;19952;-76
2021/07/05 05:33:02;;;;;;;;;;;;;;;;;;5068848;28;20061;-77
2021/07/05 05:35:31;;;;;;;;;;;;;;;;;;5061494;28;20027;-77
2021/07/05 05:37:58;;;;;;;;;;;;;;;;;;5060581;28;20035;-77
2021/07/05 05:40:25;;;;;;;;;;;;;;;;;;5056964;28;19931;-77
2021/07/05 05:42:52;;;;;;;;;;;;;;;;;;5067665;28;20011;-77
2021/07/05 05:45:19;;;;;;;;;;;;;;;;;;5064177;28;20436;-77
2021/07/05 05:47:46;;;;;;;;;;;;;;;;;;5051006;28;20003;-77
2021/07/05 05:50:13;;;;;;;;;;;;;;;;;;5070359;28;19951;-78
2021/07/05 05:52:40;;;;;;;;;;;;;;;;;;5057379;28;19932;-77
2021/07/05 05:55:08;;;;;;;;;;;;;;;;;;5060746;28;19928;-76
2021/07/05 06:00:21;;;;;;;;;;;;;;;;;;4988886;28;20378;-78
2021/07/05 06:02:49;;;;;;;;;;;;;;;;;;4990972;28;20027;-77
2021/07/05 06:05:16;;;;;;;;;;;;;;;;;;4986329;28;19930;-77
2021/07/05 06:07:49;;;;;;;;;;;;;;;;;;4983345;28;20028;-77
2021/07/05 06:10:17;;;;;;;;;;;;;;;;;;4989589;28;20017;-78
2021/07/05 06:12:44;;;;;;;;;;;;;;;;;;4990985;28;19961;-77
2021/07/05 06:15:12;;;;;;;;;;;;;;;;;;4989760;28;20049;-78
2021/07/05 06:17:39;;;;;;;;;;;;;;;;;;4983874;28;19930;-77
2021/07/05 06:20:06;;;;;;;;;;;;;;;;;;4990622;28;19930;-78
2021/07/05 06:22:42;;;;;;;;;;;;;;;;;;4989889;28;19926;-77
2021/07/05 06:25:09;;;;;;;;;;;;;;;;;;4989629;28;20417;-77
2021/07/05 06:27:36;;;;;;;;;;;;;;;;;;4994848;28;19937;-77
2021/07/05 06:30:03;;;;;;;;;;;;;;;;;;4983873;28;20004;-77
2021/07/05 06:32:30;;;;;;;;;;;;;;;;;;4988349;28;21053;-77
2021/07/05 06:34:57;;;;;;;;;;;;;;;;;;4990097;28;19929;-77
2021/07/05 06:37:24;;;;;;;;;;;;;;;;;;4982187;28;20016;-78
2021/07/05 06:39:51;;;;;;;;;;;;;;;;;;4990226;28;20009;-77
2021/07/05 06:42:18;;;;;;;;;;;;;;;;;;5003391;28;20491;-77
2021/07/05 06:44:45;;;;;;;;;;;;;;;;;;4990359;28;19930;-77
2021/07/05 06:47:13;;;;;;;;;;;;;;;;;;5026550;22;19929;-78
2021/07/05 06:49:40;;;;;;;;;;;;;;;;;;5064065;28;19991;-78
2021/07/05 06:52:07;;;;;;;;;;;;;;;;;;5055789;28;20043;-77
2021/07/05 06:54:34;;;;;;;;;;;;;;;;;;5049364;28;19979;-78
2021/07/05 07:00:05;;;;;;;;;;;;;;;;;;5070407;22;19979;-78
2021/07/05 07:02:33;;;;;;;;;;;;;;;;;;5050371;28;19928;-78
2021/07/05 07:05:00;;;;;;;;;;;;;;;;;;5050790;28;20027;-78
2021/07/05 07:07:27;;;;;;;;;;;;;;;;;;5040162;28;19971;-78
2021/07/05 07:09:54;;;;;;;;;;;;;;;;;;5068787;28;19956;-78
2021/07/05 07:12:21;;;;;;;;;;;;;;;;;;5065216;28;19968;-78
2021/07/05 07:14:48;;;;;;;;;;;;;;;;;;5057959;28;19929;-78
2021/07/05 07:17:27;;;;;;;;;;;;;;;;;;5040934;28;20011;-78
2021/07/05 07:19:55;;;;;;;;;;;;;;;;;;5043933;28;19944;-78
2021/07/05 07:22:22;;;;;;;;;;;;;;;;;;5058992;28;20027;-78
2021/07/05 07:24:49;;;;;;;;;;;;;;;;;;5060087;28;20015;-78
2021/07/05 07:27:16;;;;;;;;;;;;;;;;;;5064394;28;20047;-78
2021/07/05 07:29:43;;;;;;;;;;;;;;;;;;5049562;28;20385;-78
2021/07/05 07:32:10;;;;;;;;;;;;;;;;;;5042254;28;20615;-78
2021/07/05 07:34:37;;;;;;;;;;;;;;;;;;5066274;28;20016;-78
2021/07/05 07:39:38;;;;;;;;;;;;;;;;;;5031852;28;20019;-77
2021/07/05 07:42:06;;;;;;;;;;;;;;;;;;5029599;28;20020;-77
2021/07/05 07:44:36;;;;;;;;;;;;;;;;;;5027402;28;19963;-77
2021/07/05 07:47:03;;;;;;;;;;;;;;;;;;5020897;28;20003;-77
2021/07/05 07:49:30;;;;;;;;;;;;;;;;;;5017117;28;20019;-77
2021/07/05 07:51:58;;;;;;;;;;;;;;;;;;5018776;28;19971;-77
2021/07/05 07:54:25;;;;;;;;;;;;;;;;;;5018544;28;20011;-77
2021/07/05 07:56:52;;;;;;;;;;;;;;;;;;5028841;28;20020;-77
2021/07/05 07:59:19;;;;;;;;;;;;;;;;;;5036007;28;19972;-77
2021/07/05 08:01:46;;;;;;;;;;;;;;;;;;5014925;28;20041;-77
2021/07/05 08:04:13;;;;;;;;;;;;;;;;;;5020508;28;19931;-77
2021/07/05 08:09:30;;;;;;;;;;;;;;;;;;5004821;28;19984;-78
2021/07/05 08:11:57;;;;;;;;;;;;;;;;;;5008615;28;19964;-77
2021/07/05 08:14:25;;;;;;;;;;;;;;;;;;5007811;28;19987;-78
2021/07/05 08:16:52;;;;;;;;;;;;;;;;;;4995914;28;20472;-78
2021/07/05 08:19:19;;;;;;;;;;;;;;;;;;5015171;28;19936;-79
2021/07/05 08:21:46;;;;;;;;;;;;;;;;;;5002036;28;20036;-78
2021/07/05 08:24:14;;;;;;;;;;;;;;;;;;5007787;28;19933;-78
2021/07/05 08:26:41;;;;;;;;;;;;;;;;;;5000050;28;20282;-78
2021/07/05 08:29:08;;;;;;;;;;;;;;;;;;5007556;28;20012;-78
2021/07/05 08:31:35;;;;;;;;;;;;;;;;;;5010032;28;19931;-78
2021/07/05 08:34:02;;;;;;;;;;;;;;;;;;5002985;28;19936;-78
2021/07/05 08:36:29;;;;;;;;;;;;;;;;;;5018556;22;20008;-78
2021/07/05 08:38:59;;;;;;;;;;;;;;;;;;5068343;28;19971;-78
2021/07/05 08:41:26;;;;;;;;;;;;;;;;;;5053051;28;19928;-79
2021/07/05 08:43:53;;;;;;;;;;;;;;;;;;5075905;28;20327;-78
2021/07/05 08:46:21;;;;;;;;;;;;;;;;;;5069857;28;20019;-78
2021/07/05 08:48:48;;;;;;;;;;;;;;;;;;5071303;28;19964;-78
2021/07/05 08:51:15;;;;;;;;;;;;;;;;;;5060515;28;20022;-78
2021/07/05 08:53:43;;;;;;;;;;;;;;;;;;5072057;28;20443;-79
2021/07/05 08:56:10;;;;;;;;;;;;;;;;;;5065276;28;19924;-78
2021/07/05 08:58:37;;;;;;;;;;;;;;;;;;5069156;28;20795;-78
2021/07/05 09:01:05;;;;;;;;;;;;;;;;;;5083343;28;20385;-78
2021/07/05 09:03:32;;;;;;;;;;;;;;;;;;5061921;28;19982;-78
2021/07/05 09:09:10;;;;;;;;;;;;;;;;;;5070965;22;19982;-77
2021/07/05 09:11:37;;;;;;;;;;;;;;;;;;5063151;28;19928;-77
2021/07/05 09:14:04;;;;;;;;;;;;;;;;;;5063610;28;19975;-77
2021/07/05 09:16:31;;;;;;;;;;;;;;;;;;5054048;28;20034;-77
2021/07/05 09:18:58;;;;;;;;;;;;;;;;;;5054725;28;19928;-77
2021/07/05 09:21:26;;;;;;;;;;;;;;;;;;5053622;28;19934;-76
2021/07/05 09:23:53;;;;;;;;;;;;;;;;;;5051649;28;20360;-76
2021/07/05 09:26:20;;;;;;;;;;;;;;;;;;5047901;28;20354;-77
2021/07/05 09:28:47;;;;;;;;;;;;;;;;;;5059175;28;20679;-77
2021/07/05 09:31:15;;;;;;;;;;;;;;;;;;5048809;28;20015;-77
2021/07/05 09:33:42;;;;;;;;;;;;;;;;;;5056484;28;19929;-77
2021/07/05 09:36:09;;;;;;;;;;;;;;;;;;5049060;28;19925;-76
2021/07/05 09:38:36;;;;;;;;;;;;;;;;;;5056894;28;20019;-77
2021/07/05 09:41:03;;;;;;;;;;;;;;;;;;5061501;28;19928;-77
2021/07/05 09:43:30;;;;;;;;;;;;;;;;;;5067418;28;19967;-77
2021/07/05 09:45:57;;;;;;;;;;;;;;;;;;5048168;28;20584;-77
2021/07/05 09:48:24;;;;;;;;;;;;;;;;;;5062004;28;19925;-77
2021/07/05 09:50:51;;;;;;;;;;;;;;;;;;5065507;28;20613;-77
2021/07/05 09:53:18;;;;;;;;;;;;;;;;;;5061334;28;20026;-77
2021/07/05 09:55:45;;;;;;;;;;;;;;;;;;5062842;28;19929;-76
2021/07/05 09:58:12;;;;;;;;;;;;;;;;;;5055540;28;20015;-76
2021/07/05 10:00:40;;;;;;;;;;;;;;;;;;5052290;28;19968;-77
2021/07/05 10:03:07;;;;;;;;;;;;;;;;;;5058309;28;20019;-77
2021/07/05 10:08:44;;;;;;;;;;;;;;;;;;5086447;22;19931;-77
2021/07/05 10:11:11;;;;;;;;;;;;;;;;;;5077712;28;20043;-77
2021/07/05 10:13:38;;;;;;;;;;;;;;;;;;5074354;28;19932;-77
2021/07/05 10:16:07;;;;;;;;;;;;;;;;;;5078363;28;19928;-77
2021/07/05 10:18:34;;;;;;;;;;;;;;;;;;5081118;28;19928;-78
2021/07/05 10:21:01;;;;;;;;;;;;;;;;;;5080506;28;19927;-78
2021/07/05 10:23:29;;;;;;;;;;;;;;;;;;5081394;28;19934;-78
2021/07/05 10:25:56;;;;;;;;;;;;;;;;;;5066406;28;20295;-78
2021/07/05 10:28:23;;;;;;;;;;;;;;;;;;5080318;28;20717;-78
2021/07/05 10:30:51;;;;;;;;;;;;;;;;;;5080867;28;20419;-78
2021/07/05 10:33:18;;;;;;;;;;;;;;;;;;5088818;28;20433;-78
2021/07/05 10:35:45;;;;;;;;;;;;;;;;;;5084335;28;20384;-78
2021/07/05 10:38:12;;;;;;;;;;;;;;;;;;5081037;28;20026;-78
2021/07/05 10:40:39;;;;;;;;;;;;;;;;;;5080646;28;19966;-78
2021/07/05 10:43:07;;;;;;;;;;;;;;;;;;5088897;28;19959;-77
2021/07/05 10:45:34;;;;;;;;;;;;;;;;;;5084451;28;20019;-77
2021/07/05 10:48:01;;;;;;;;;;;;;;;;;;5081866;28;19970;-78
2021/07/05 10:50:28;;;;;;;;;;;;;;;;;;5086451;28;19971;-78
2021/07/05 10:52:55;;;;;;;;;;;;;;;;;;5076848;28;20718;-78
2021/07/05 10:55:22;;;;;;;;;;;;;;;;;;5068646;28;19935;-78
2021/07/05 10:57:49;;;;;;;;;;;;;;;;;;5077688;28;19930;-78
2021/07/05 11:00:19;;;;;;;;;;;;;;;;;;5068670;28;19938;-78
2021/07/05 11:02:46;;;;;;;;;;;;;;;;;;5061938;28;20022;-78
2021/07/05 11:05:28;;;;;;;;;;;;;;;;;;5055932;28;19962;-78
2021/07/05 11:07:56;;;;;;;;;;;;;;;;;;5070796;28;19938;-78
2021/07/05 11:10:23;;;;;;;;;;;;;;;;;;5074905;28;20418;-78
2021/07/05 11:12:53;;;;;;;;;;;;;;;;;;5066647;28;19935;-78
2021/07/05 11:15:20;;;;;;;;;;;;;;;;;;5073249;28;19928;-78
2021/07/05 11:17:48;;;;;;;;;;;;;;;;;;5076395;28;20543;-77
2021/07/05 11:20:15;;;;;;;;;;;;;;;;;;5068964;28;20010;-78
2021/07/05 11:22:42;;;;;;;;;;;;;;;;;;5062690;28;19928;-78
2021/07/05 11:25:10;;;;;;;;;;;;;;;;;;5058541;28;19936;-78
2021/07/05 11:27:37;;;;;;;;;;;;;;;;;;5058456;22;20014;-78
2021/07/05 11:30:04;;;;;;;;;;;;;;;;;;5028826;28;20448;-78
2021/07/05 11:32:32;;;;;;;;;;;;;;;;;;5027436;28;19939;-78
2021/07/05 11:34:59;;;;;;;;;;;;;;;;;;5026416;28;19935;-77
2021/07/05 11:37:27;;;;;;;;;;;;;;;;;;5021023;28;19940;-78
2021/07/05 11:39:54;;;;;;;;;;;;;;;;;;5025996;28;20053;-78
2021/07/05 11:42:22;;;;;;;;;;;;;;;;;;5026462;28;20024;-78
2021/07/05 11:44:49;;;;;;;;;;;;;;;;;;5022630;28;20040;-78
2021/07/05 11:47:16;;;;;;;;;;;;;;;;;;5021165;28;20409;-78
2021/07/05 11:49:44;;;;;;;;;;;;;;;;;;5024118;28;20007;-78
2021/07/05 11:52:11;;;;;;;;;;;;;;;;;;5027140;28;20031;-78
2021/07/05 11:54:38;;;;;;;;;;;;;;;;;;5026474;28;20056;-78
2021/07/05 11:57:05;;;;;;;;;;;;;;;;;;5020143;28;20020;-77
2021/07/05 11:59:32;;;;;;;;;;;;;;;;;;5027263;28;19952;-78
2021/07/05 12:02:00;;;;;;;;;;;;;;;;;;5025436;28;20008;-78
2021/07/05 12:04:27;;;;;;;;;;;;;;;;;;5025948;28;20524;-78
2021/07/05 12:10:04;;;;;;;;;;;;;;;;;;5063313;22;19927;-78
2021/07/05 12:12:31;;;;;;;;;;;;;;;;;;5057516;28;20058;-78
2021/07/05 12:14:58;;;;;;;;;;;;;;;;;;5048916;28;20023;-77
2021/07/05 12:17:25;;;;;;;;;;;;;;;;;;5041246;28;19982;-77
2021/07/05 12:19:52;;;;;;;;;;;;;;;;;;5050344;28;19935;-76
2021/07/05 12:22:20;;;;;;;;;;;;;;;;;;5053166;28;19986;-76
2021/07/05 12:24:47;;;;;;;;;;;;;;;;;;5045096;28;20282;-76
2021/07/05 12:27:16;;;;;;;;;;;;;;;;;;5058844;28;19987;-77
2021/07/05 12:29:46;;;;;;;;;;;;;;;;;;5058160;28;19971;-76
2021/07/05 12:32:14;;;;;;;;;;;;;;;;;;5062568;28;19928;-77
2021/07/05 12:34:41;;;;;;;;;;;;;;;;;;5061491;28;19985;-76
2021/07/05 12:37:08;;;;;;;;;;;;;;;;;;5070374;23;20467;-76
2021/07/05 12:39:35;;;;;;;;;;;;;;;;;;5073006;28;20457;-76
2021/07/05 12:44:31;;;;;;;;;;;;;;;;;;5021246;28;20476;-78
2021/07/05 12:46:58;;;;;;;;;;;;;;;;;;5023904;28;19929;-78
2021/07/05 12:49:25;;;;;;;;;;;;;;;;;;5005125;28;19929;-78
2021/07/05 12:51:53;;;;;;;;;;;;;;;;;;5023718;28;20654;-78
2021/07/05 12:54:20;;;;;;;;;;;;;;;;;;5036969;22;20027;-78
2021/07/05 12:56:47;;;;;;;;;;;;;;;;;;5046777;28;20485;-77
2021/07/05 12:59:14;;;;;;;;;;;;;;;;;;5080522;28;20019;-78
2021/07/05 13:01:42;;;;;;;;;;;;;;;;;;5055708;28;19928;-78
2021/07/05 13:04:09;;;;;;;;;;;;;;;;;;5062702;28;20265;-77
2021/07/05 13:06:37;;;;;;;;;;;;;;;;;;5058237;28;20063;-79
2021/07/05 13:09:04;;;;;;;;;;;;;;;;;;5062735;28;19931;-78
2021/07/05 13:11:31;;;;;;;;;;;;;;;;;;5067615;28;20015;-78
2021/07/05 13:13:58;;;;;;;;;;;;;;;;;;5065400;28;20000;-78
2021/07/05 13:16:25;;;;;;;;;;;;;;;;;;5063940;28;19968;-79
2021/07/05 13:18:53;;;;;;;;;;;;;;;;;;5083556;28;19932;-80
2021/07/05 13:21:20;;;;;;;;;;;;;;;;;;5068724;28;19982;-81
2021/07/05 13:23:48;;;;;;;;;;;;;;;;;;5068389;28;20023;-79
2021/07/05 13:26:16;;;;;;;;;;;;;;;;;;5061697;28;20765;-78
2021/07/05 13:28:43;;;;;;;;;;;;;;;;;;5071188;28;20472;-77
2021/07/05 13:31:10;;;;;;;;;;;;;;;;;;5072497;28;19959;-77
2021/07/05 13:33:38;;;;;;;;;;;;;;;;;;5077321;22;19936;-76
2021/07/05 13:36:05;;;;;;;;;;;;;;;;;;4996967;28;19976;-78
2021/07/05 13:38:33;;;;;;;;;;;;;;;;;;5019275;28;19972;-79
2021/07/05 13:41:01;;;;;;;;;;;;;;;;;;5012330;28;19931;-78
2021/07/05 13:43:28;;;;;;;;;;;;;;;;;;5026601;28;19972;-82
2021/07/05 13:45:55;;;;;;;;;;;;;;;;;;5037791;28;20039;-83
2021/07/05 13:48:23;;;;;;;;;;;;;;;;;;5019113;28;19933;-77
2021/07/05 13:50:50;;;;;;;;;;;;;;;;;;5029854;28;20004;-78
2021/07/05 13:53:17;;;;;;;;;;;;;;;;;;5031894;28;19972;-77
2021/07/05 13:55:45;;;;;;;;;;;;;;;;;;5025842;28;19972;-78
2021/07/05 13:58:12;;;;;;;;;;;;;;;;;;5025426;28;20004;-78
2021/07/05 14:00:40;;;;;;;;;;;;;;;;;;5029612;28;20385;-77
2021/07/05 14:03:07;;;;;;;;;;;;;;;;;;5026760;28;19936;-80
2021/07/05 14:05:35;;;;;;;;;;;;;;;;;;5024766;28;19932;-79
2021/07/05 14:08:02;;;;;;;;;;;;;;;;;;5005136;28;20295;-79
2021/07/05 14:10:29;;;;;;;;;;;;;;;;;;5028152;28;20019;-80
2021/07/05 14:12:56;;;;;;;;;;;;;;;;;;5030440;28;19972;-80
2021/07/05 14:15:24;;;;;;;;;;;;;;;;;;5026437;28;19933;-79
2021/07/05 14:17:51;;;;;;;;;;;;;;;;;;5027271;28;20007;-78
2021/07/05 14:20:18;;;;;;;;;;;;;;;;;;5031554;28;19929;-78
2021/07/05 14:22:46;;;;;;;;;;;;;;;;;;5023189;28;19925;-79
2021/07/05 14:25:15;;;;;;;;;;;;;;;;;;5029994;28;19952;-79
2021/07/05 14:27:42;;;;;;;;;;;;;;;;;;5022076;28;20644;-79
2021/07/05 14:30:09;;;;;;;;;;;;;;;;;;5028333;28;19952;-78
2021/07/05 14:32:36;;;;;;;;;;;;;;;;;;5026951;28;20429;-78
2021/07/05 14:35:03;;;;;;;;;;;;;;;;;;5028225;28;20527;-77
2021/07/05 14:37:30;;;;;;;;;;;;;;;;;;5012542;28;20030;-78
2021/07/05 14:39:57;;;;;;;;;;;;;;;;;;5029424;28;19972;-79
2021/07/05 14:42:25;;;;;;;;;;;;;;;;;;5016798;28;19953;-79
2021/07/05 14:44:53;;;;;;;;;;;;;;;;;;5029120;28;19964;-79
2021/07/05 14:47:20;;;;;;;;;;;;;;;;;;5019118;28;20309;-78
2021/07/05 14:49:49;;;;;;;;;;;;;;;;;;5017110;28;20616;-79
2021/07/05 14:52:16;;;;;;;;;;;;;;;;;;5031433;28;19960;-79
2021/07/05 14:54:44;;;;;;;;;;;;;;;;;;5030062;28;20644;-78
2021/07/05 14:57:15;;;;;;;;;;;;;;;;;;5020651;28;19928;-79
2021/07/05 14:59:42;;;;;;;;;;;;;;;;;;5029610;28;20312;-80
2021/07/05 15:02:10;;;;;;;;;;;;;;;;;;5031934;28;19968;-79
2021/07/05 15:04:37;;;;;;;;;;;;;;;;;;5030453;28;19975;-80
2021/07/05 15:07:04;;;;;;;;;;;;;;;;;;5017291;28;19972;-81
2021/07/05 15:09:31;;;;;;;;;;;;;;;;;;5015924;28;19929;-80
2021/07/05 15:11:58;;;;;;;;;;;;;;;;;;5026695;28;20247;-78
2021/07/05 15:14:27;;;;;;;;;;;;;;;;;;5029315;28;20012;-80
2021/07/05 15:16:54;;;;;;;;;;;;;;;;;;5013413;28;20016;-80
2021/07/05 15:19:21;;;;;;;;;;;;;;;;;;5028755;28;19926;-81
2021/07/05 15:21:49;;;;;;;;;;;;;;;;;;5030692;28;19985;-80
2021/07/05 15:24:18;;;;;;;;;;;;;;;;;;5031542;28;19983;-80
2021/07/05 15:26:45;;;;;;;;;;;;;;;;;;5020817;28;19985;-81
2021/07/05 15:29:12;;;;;;;;;;;;;;;;;;5030568;28;19925;-80
2021/07/05 15:31:40;;;;;;;;;;;;;;;;;;5027351;28;19988;-85
2021/07/05 15:34:07;;;;;;;;;;;;;;;;;;5029958;28;20282;-81
2021/07/05 15:36:36;;;;;;;;;;;;;;;;;;4993006;28;19932;-81
2021/07/05 15:39:03;;;;;;;;;;;;;;;;;;5028058;28;19984;-81
2021/07/05 15:41:30;;;;;;;;;;;;;;;;;;5030146;28;19995;-78
2021/07/05 15:43:58;;;;;;;;;;;;;;;;;;5029612;28;19965;-79
2021/07/05 15:46:25;;;;;;;;;;;;;;;;;;5018953;28;19968;-77
2021/07/05 15:48:52;;;;;;;;;;;;;;;;;;5021369;28;19948;-78
2021/07/05 15:51:19;;;;;;;;;;;;;;;;;;5028922;28;19964;-77
2021/07/05 15:53:47;;;;;;;;;;;;;;;;;;5027667;28;20012;-77
2021/07/05 15:56:15;;;;;;;;;;;;;;;;;;5023784;28;20094;-77
2021/07/05 15:58:42;;;;;;;;;;;;;;;;;;5022807;28;20573;-76
2021/07/05 16:01:09;;;;;;;;;;;;;;;;;;5025673;28;20008;-78
2021/07/05 16:03:38;;;;;;;;;;;;;;;;;;5035855;28;19963;-79
2021/07/05 16:06:05;;;;;;;;;;;;;;;;;;5022007;28;20266;-78
2021/07/05 16:08:32;;;;;;;;;;;;;;;;;;5022828;28;20020;-77
2021/07/05 16:10:59;;;;;;;;;;;;;;;;;;5026767;28;20374;-76
2021/07/05 16:13:26;;;;;;;;;;;;;;;;;;5018036;28;20028;-78
2021/07/05 16:15:54;;;;;;;;;;;;;;;;;;5026621;28;20386;-77
2021/07/05 16:18:22;;;;;;;;;;;;;;;;;;5014090;28;20008;-75
2021/07/05 16:20:49;;;;;;;;;;;;;;;;;;5023463;28;20024;-77
2021/07/05 16:23:16;;;;;;;;;;;;;;;;;;5013647;28;20044;-76
2021/07/05 16:25:43;;;;;;;;;;;;;;;;;;5023131;28;20027;-76
2021/07/05 16:28:11;;;;;;;;;;;;;;;;;;5020326;28;19936;-76
2021/07/05 16:30:38;;;;;;;;;;;;;;;;;;5022906;28;20070;-76
2021/07/05 16:33:05;;;;;;;;;;;;;;;;;;5026210;28;19972;-76
2021/07/05 16:35:32;;;;;;;;;;;;;;;;;;5021500;28;20012;-75
2021/07/05 16:38:00;;;;;;;;;;;;;;;;;;5034039;28;20532;-76
2021/07/05 16:40:27;;;;;;;;;;;;;;;;;;5026060;28;20381;-77
2021/07/05 16:42:54;;;;;;;;;;;;;;;;;;5007860;28;20567;-77
2021/07/05 16:45:21;;;;;;;;;;;;;;;;;;5002830;28;20144;-76
2021/07/05 16:47:48;;;;;;;;;;;;;;;;;;5000366;28;20058;-76
2021/07/05 16:50:17;;;;;;;;;;;;;;;;;;5025192;28;19936;-76
2021/07/05 16:52:44;;;;;;;;;;;;;;;;;;5025248;28;19932;-76
2021/07/05 16:55:12;;;;;;;;;;;;;;;;;;5021747;28;19948;-76
2021/07/05 16:57:41;;;;;;;;;;;;;;;;;;5028293;28;20029;-75
2021/07/05 17:00:08;;;;;;;;;;;;;;;;;;5023398;28;19936;-76
2021/07/05 17:02:35;;;;;;;;;;;;;;;;;;5024739;28;20010;-75
2021/07/05 17:05:02;;;;;;;;;;;;;;;;;;5024319;28;19929;-76
2021/07/05 17:07:30;;;;;;;;;;;;;;;;;;5013895;28;20016;-75
2021/07/05 17:09:57;;;;;;;;;;;;;;;;;;5024311;28;20415;-76
2021/07/05 17:12:24;;;;;;;;;;;;;;;;;;5025097;28;19931;-75
2021/07/05 17:14:51;;;;;;;;;;;;;;;;;;5024747;28;19977;-76